Rochester, NH

9:27 AM EDT on August 21, 2014 (GMT -0400)
Skyhaven | Change Station
CLOSE
Current Station
Airport
Location: Rochester,
Elevation: 322 ft
Nearby Weather Stations

Elev 322 ft 43.28 °N, 70.92 °W | Updated 36 minutes ago

Clear
Clear
61 °F
Feels Like 61 °F
N
0
Wind Variable Wind from North

Today
High -- | Low -- °F
--% Chance of Precip.
Yesterday
High -- | Low -- °F
Precip. -- in
5:55 AM 7:37 PM
Waning Crescent, 14% visible
Pressure 30.11 in
Visibility 10.0 miles
Clouds Clear
Dew Point 55 °F
Humidity 81%
Rainfall 0.00 in
Snow Depth Not available.
UV 3 out of 12
Pollen 6.90 out of 12
Ozone Good
PM2.5 Good
Flu Activity Not available.
METAR KDAW 211251Z AUTO 00000KT 10SM CLR 16/13 A3011 RMK AO2 SLP194 T01610128

More Conditions Fewer Conditions

Pressure 30.11 in
Visibility 10.0 miles
Clouds Clear
Dew Point 55 °F
Humidity 81%
Rainfall 0.00 in
Snow Depth Not available.
UV 3 out of 12
Pollen 6.90 out of 12
Ozone Good
PM2.5 Good
Flu Activity Not available.
METAR KDAW 211251Z AUTO 00000KT 10SM CLR 16/13 A3011 RMK AO2 SLP194 T01610128

More Conditions Fewer Conditions

10-Day Weather Forecast

Almanac

Astronomy

Aug. 21, 2014 Rise Set
Actual Time 5:55 AM EDT 7:37 PM EDT
Civil Twilight 5:25 AM EDT 8:07 PM EDT
Nautical Twilight 4:48 AM EDT 8:44 PM EDT
Astronomical Twilight 4:09 AM EDT 9:23 PM EDT
Moon 2:20 AM EDT 5:06 PM EDT
Length of Visible Light 14h 41m
Length of Day
13h 41m
Tomorrow will be 2m 43s shorter.
Waning Crescent, 14% of the Moon is Illuminated
Today
Waning Crescent
Aug 25
New
Sep 2
First Quarter
Sep 8
Full
Sep 15
Last Quarter

Today's Extremes

State Highs State Lows

Community

WunderPhotos

Upload Photos

1,745,918 photos uploaded!

WunderBlogs® & News

By Dr. Jeff Masters
Director of Meteorology, Weather Underground
By Kari Strenfel
Meteorologist, Weather Underground
By Christopher C. Burt
Weather Historian, Weather Underground
August 21, 2014
August 21, 2014
August 21, 2014

Nearby

Air Quality

  Air Quality AQ Index Pollutant
Yesterday Good
OZONE
Yesterday Good
PM2.5
Current Good
PM2.5
Current Good
OZONE
Thursday Good
PM2.5
Thursday Good
OZONE

Snow Depth

Station Depth Elevation
No new snow has been reported.

Earthquake Activity

City Distance Mag. Time & Date
No recent earthquake activity has been reported nearby.
Minimum magnitude displayed is 2.5.

Coastal Water Temperatures

Place Temperature
Wells, ME 61.0 °F
Portland, ME 60.1 °F

Nearby Weather Stations